Blooming Grove, New York
Current Conditions -  °F | °C
As of 12:45 PM on Sunday 25 Jan 2015 (Local Time) from KSWF Reporting Station
Few Clouds Few Clouds  
Wind Chill: 23°   Ceiling: Unl
Heat Index: 34°   Visibility: 20mi
Dew Point: 18°   Wind: 17mph
Humidity: 52%   Direction: 290°WNW
Pressure: 29.77"   Gusts: 29mph
Location:  41.41°N, 74.19°W
Report Text: KSWF 251745Z 29015G25KT 20SM FEW120 01/M08 A2977
Loading
Personal Weather Stations






























Interactive Weather Map New forecast layout! Learn more

10-Day Weather Forecast

Advertisements
Track Severe Weather on mobile